Time;durP1;ratioP1;P1;durP2;ratioP2;P2;SDS_P1;SDS_P2;PMS_P1;PMS_P2;Temp;Humidity;BMP_temperature;BMP_pressure;BME280_temperature;BME280_humidity;BME280_pressure;Samples;Min_cycle;Max_cycle;Signal;HPM_P1;HPM_P2
2023/06/06 00:01:13;;;;;;;;;2.00;2.00;;;;;27.80;33.92;101844.41;6305606;22;45225;-74
2023/06/06 00:03:38;;;;;;;;;6.33;3.00;;;;;27.77;34.11;101841.25;6305068;22;45299;-74
2023/06/06 00:06:04;;;;;;;;;4.67;4.00;;;;;27.82;33.27;101849.53;6302513;22;46219;-74
2023/06/06 00:08:30;;;;;;;;;4.00;4.00;;;;;27.79;34.00;101850.72;6304925;22;45314;-74
2023/06/06 00:10:55;;;;;;;;;2.67;2.67;;;;;27.83;33.31;101845.84;6304878;22;45249;-74
2023/06/06 00:13:21;;;;;;;;;3.00;3.00;;;;;27.73;33.95;101838.16;6305436;22;45334;-75
2023/06/06 00:15:46;;;;;;;;;4.00;4.00;;;;;27.80;33.54;101841.72;6304830;22;47295;-74
2023/06/06 00:18:12;;;;;;;;;3.00;3.00;;;;;27.77;33.47;101842.09;6305155;22;45250;-74
2023/06/06 00:20:38;;;;;;;;;3.67;3.67;;;;;27.82;33.83;101847.69;6302920;22;45239;-74
2023/06/06 00:23:04;;;;;;;;;3.00;3.00;;;;;27.77;33.62;101833.22;6304995;22;45469;-74
2023/06/06 00:25:30;;;;;;;;;4.00;4.00;;;;;27.76;33.29;101836.94;6304389;22;45365;-74
2023/06/06 00:27:55;;;;;;;;;4.00;4.00;;;;;27.74;33.66;101837.13;6304710;22;45248;-74
2023/06/06 00:30:20;;;;;;;;;3.67;2.00;;;;;27.76;33.87;101834.28;6305088;22;45572;-74
2023/06/06 00:32:46;;;;;;;;;3.67;3.00;;;;;27.79;33.36;101849.94;6305402;22;45395;-74
2023/06/06 00:35:11;;;;;;;;;3.33;3.33;;;;;27.78;33.34;101841.06;6303985;22;45319;-72
2023/06/06 00:37:36;;;;;;;;;4.00;4.00;;;;;27.76;33.52;101835.09;6304818;22;45308;-74
2023/06/06 00:40:02;;;;;;;;;3.67;3.67;;;;;27.80;33.21;101843.56;6303048;22;45297;-75
2023/06/06 00:42:29;;;;;;;;;3.00;3.00;;;;;27.79;33.58;101834.69;6305194;22;45252;-74
2023/06/06 00:44:54;;;;;;;;;4.00;3.00;;;;;27.77;33.37;101835.91;6303195;22;46565;-74
2023/06/06 00:47:19;;;;;;;;;4.00;3.00;;;;;27.78;33.47;101833.06;6304227;22;45357;-74
2023/06/06 00:49:46;;;;;;;;;9.33;3.67;;;;;27.81;33.45;101832.69;6304620;22;45284;-74
2023/06/06 00:52:12;;;;;;;;;4.00;4.00;;;;;27.71;33.50;101824.97;6305307;22;45213;-75
2023/06/06 00:54:38;;;;;;;;;3.00;2.00;;;;;27.79;33.32;101831.22;6304467;22;46265;-74
2023/06/06 00:57:07;;;;;;;;;3.33;3.33;;;;;27.80;33.69;101835.56;6302997;22;45574;-74
2023/06/06 00:59:32;;;;;;;;;4.67;4.67;;;;;27.76;33.65;101831.59;6305339;22;45414;-74
2023/06/06 01:01:58;;;;;;;;;3.00;3.00;;;;;27.73;33.42;101830.97;6304061;22;45624;-74
2023/06/06 01:04:24;;;;;;;;;5.33;4.00;;;;;27.79;33.86;101837.38;6303980;22;46335;-74
2023/06/06 01:06:51;;;;;;;;;5.00;4.00;;;;;27.74;33.39;101826.44;6303145;22;45326;-74
2023/06/06 01:09:19;;;;;;;;;4.00;2.33;;;;;27.76;33.62;101831.59;6304865;22;45303;-74
2023/06/06 01:12:12;;;;;;;;;4.00;3.00;;;;;27.71;33.13;101824.16;6304719;22;45454;-74
2023/06/06 01:14:51;;;;;;;;;3.00;2.33;;;;;27.78;33.12;101829.56;6304356;22;46906;-74
2023/06/06 01:17:18;;;;;;;;;6.00;4.33;;;;;27.69;33.30;101815.53;6304512;22;45379;-74
2023/06/06 01:19:48;;;;;;;;;3.00;3.00;;;;;27.78;33.49;101824.19;6304354;22;45288;-75
2023/06/06 01:22:17;;;;;;;;;3.00;3.00;;;;;27.74;33.74;101821.91;6304803;22;45395;-74
2023/06/06 01:24:46;;;;;;;;;5.00;5.00;;;;;27.73;33.33;101814.09;6304409;22;46513;-75
2023/06/06 01:27:12;;;;;;;;;3.67;3.67;;;;;27.78;33.84;101821.53;6304711;22;45279;-74
2023/06/06 01:29:37;;;;;;;;;3.00;2.67;;;;;27.68;33.83;101808.50;6304725;22;45245;-74
2023/06/06 01:32:16;;;;;;;;;4.33;3.33;;;;;27.77;32.89;101819.88;6304425;22;45415;-74
2023/06/06 01:34:53;;;;;;;;;3.67;3.67;;;;;27.72;33.33;101815.09;6303956;22;45962;-74
2023/06/06 01:37:59;;;;;;;;;4.00;3.00;;;;;27.74;33.15;101815.72;6305051;22;45273;-75
2023/06/06 01:40:30;;;;;;;;;6.00;4.00;;;;;27.71;33.74;101808.94;6304667;22;45319;-74
2023/06/06 01:42:55;;;;;;;;;1.67;1.67;;;;;27.70;33.09;101812.66;6305154;22;45356;-74
2023/06/06 01:45:26;;;;;;;;;4.67;3.00;;;;;27.74;33.66;101810.38;6304229;22;46472;-74
2023/06/06 01:47:53;;;;;;;;;4.00;4.00;;;;;27.72;33.25;101809.75;6303982;22;45270;-74
2023/06/06 01:50:18;;;;;;;;;5.33;3.67;;;;;27.74;33.16;101811.22;6302118;22;45277;-74
2023/06/06 01:52:44;;;;;;;;;2.00;2.00;;;;;27.71;33.22;101806.25;6304521;22;45404;-74
2023/06/06 01:55:10;;;;;;;;;4.00;4.00;;;;;27.74;33.58;101819.25;6304354;22;46335;-74
2023/06/06 01:57:35;;;;;;;;;3.67;3.00;;;;;27.71;33.16;101802.78;6304355;22;45304;-75
2023/06/06 02:00:03;;;;;;;;;4.67;3.00;;;;;27.70;33.01;101803.78;6304516;22;45298;-74
2023/06/06 02:02:29;;;;;;;;;4.67;4.67;;;;;27.72;33.10;101804.41;6304154;22;45773;-74
2023/06/06 02:04:54;;;;;;;;;5.67;4.00;;;;;27.72;33.89;101807.91;6304730;22;45232;-73
2023/06/06 02:07:20;;;;;;;;;5.00;5.00;;;;;27.72;33.49;101802.56;6304853;22;45270;-75
2023/06/06 02:09:45;;;;;;;;;3.00;3.00;;;;;27.69;33.02;101797.63;6305018;22;45224;-74
2023/06/06 02:12:11;;;;;;;;;4.33;4.00;;;;;27.70;33.47;101801.13;6304507;22;45466;-74
2023/06/06 02:14:37;;;;;;;;;3.67;3.00;;;;;27.70;33.33;101804.63;6304514;22;45314;-74
2023/06/06 02:17:03;;;;;;;;;4.00;4.00;;;;;27.73;33.70;101806.91;6304313;22;45324;-74
2023/06/06 02:19:31;;;;;;;;;3.00;3.00;;;;;27.71;33.65;101806.25;6304443;22;45220;-74
2023/06/06 02:21:56;;;;;;;;;4.33;3.33;;;;;27.64;33.21;101794.69;6304391;22;45317;-74
2023/06/06 02:24:24;;;;;;;;;5.00;3.67;;;;;27.62;33.20;101791.41;6303807;22;45575;-75
2023/06/06 02:26:52;;;;;;;;;5.33;4.33;;;;;27.65;33.22;101796.38;6304311;22;45375;-74
2023/06/06 02:29:18;;;;;;;;;3.00;2.00;;;;;27.72;33.18;101804.41;6304478;22;45252;-74
2023/06/06 02:31:43;;;;;;;;;7.00;5.00;;;;;27.67;32.93;101791.66;6304388;22;45396;-74
2023/06/06 02:34:08;;;;;;;;;3.00;3.00;;;;;27.69;33.55;101796.81;6304655;22;46571;-74
2023/06/06 02:36:34;;;;;;;;;1.00;1.00;;;;;27.69;33.53;101794.94;6304821;22;45153;-74
2023/06/06 02:39:00;;;;;;;;;4.33;3.67;;;;;27.72;32.95;101793.72;6303656;22;45303;-74
2023/06/06 02:41:26;;;;;;;;;3.00;2.00;;;;;27.68;33.11;101789.81;6303818;22;45280;-74
2023/06/06 02:43:51;;;;;;;;;5.00;3.33;;;;;27.65;33.18;101783.00;6304029;22;45342;-74
2023/06/06 02:46:17;;;;;;;;;4.00;2.33;;;;;27.59;33.14;101775.75;6303711;22;45414;-74
2023/06/06 02:48:45;;;;;;;;;3.33;3.00;;;;;27.68;33.74;101782.63;6302316;22;45392;-74
2023/06/06 02:51:11;;;;;;;;;4.00;4.00;;;;;27.70;32.98;101790.44;6304292;22;45265;-74
2023/06/06 02:53:40;;;;;;;;;4.00;4.00;;;;;27.71;33.75;101792.88;6303927;22;46774;-74
2023/06/06 02:56:06;;;;;;;;;4.00;4.00;;;;;27.70;33.58;101785.91;6303938;22;45270;-74
2023/06/06 02:58:32;;;;;;;;;3.00;3.00;;;;;27.64;33.67;101776.00;6302552;22;45357;-74
2023/06/06 03:00:59;;;;;;;;;4.67;4.67;;;;;27.71;32.78;101786.75;6303719;22;45423;-74
2023/06/06 03:03:24;;;;;;;;;3.00;2.33;;;;;27.71;33.40;101790.22;6302313;22;46430;-74
2023/06/06 03:05:51;;;;;;;;;5.33;5.33;;;;;27.71;33.68;101789.41;6304078;22;45742;-74
2023/06/06 03:08:18;;;;;;;;;5.00;3.00;;;;;27.65;33.13;101777.66;6304370;22;45269;-74
2023/06/06 03:10:48;;;;;;;;;4.00;4.00;;;;;27.67;33.55;101780.94;6303994;22;45345;-74
2023/06/06 03:13:14;;;;;;;;;4.00;4.00;;;;;27.65;33.33;101776.81;6303613;22;45550;-74
2023/06/06 03:15:41;;;;;;;;;3.33;3.33;;;;;27.71;33.22;101784.06;6303487;22;45253;-74
2023/06/06 03:18:09;;;;;;;;;3.00;3.00;;;;;27.69;33.20;101784.25;6304447;22;45224;-74
2023/06/06 03:20:36;;;;;;;;;4.00;4.00;;;;;27.68;33.38;101779.94;6302540;22;45530;-74
2023/06/06 03:23:01;;;;;;;;;4.50;3.00;;;;;27.66;32.90;101771.28;6303913;22;45388;-74
2023/06/06 03:25:28;;;;;;;;;3.67;3.67;;;;;27.64;32.87;101770.66;6303478;22;45261;-74
2023/06/06 03:27:54;;;;;;;;;5.00;4.00;;;;;27.68;33.55;101779.94;6303938;22;45426;-74
2023/06/06 03:30:19;;;;;;;;;5.67;4.33;;;;;27.69;33.16;101778.91;6303756;22;45349;-74
2023/06/06 03:32:45;;;;;;;;;6.00;3.67;;;;;27.67;33.54;101778.28;6304137;22;46260;-74
2023/06/06 03:35:14;;;;;;;;;4.00;4.00;;;;;27.64;32.67;101773.31;6303647;22;45299;-74
2023/06/06 03:37:40;;;;;;;;;4.33;4.33;;;;;27.66;32.91;101773.97;6303614;22;45155;-74
2023/06/06 03:40:06;;;;;;;;;4.00;4.00;;;;;27.62;33.41;101764.69;6303966;22;45469;-74
2023/06/06 03:42:31;;;;;;;;;4.33;3.00;;;;;27.59;33.53;101762.38;6303658;22;45419;-73
2023/06/06 03:44:57;;;;;;;;;2.00;2.00;;;;;27.63;33.53;101772.50;6303547;22;45246;-74
2023/06/06 03:47:22;;;;;;;;;2.33;2.33;;;;;27.66;33.36;101773.13;6304042;22;45256;-74
2023/06/06 03:49:47;;;;;;;;;5.33;4.67;;;;;27.67;32.90;101774.78;6303787;22;45260;-74
2023/06/06 03:52:12;;;;;;;;;3.33;3.33;;;;;27.57;33.44;101761.75;6303506;22;45452;-74
2023/06/06 03:54:38;;;;;;;;;5.00;3.00;;;;;27.66;32.78;101773.97;6304588;22;45332;-74
2023/06/06 03:57:08;;;;;;;;;4.67;4.00;;;;;27.67;33.03;101778.28;6305622;22;45264;-74
2023/06/06 03:59:34;;;;;;;;;3.00;3.00;;;;;27.58;33.37;101766.09;6304847;22;45403;-74
2023/06/06 04:01:59;;;;;;;;;6.00;3.33;;;;;27.61;33.54;101763.03;6304661;22;46236;-74
2023/06/06 04:04:26;;;;;;;;;5.00;5.00;;;;;27.65;33.40;101771.47;6305227;22;45217;-74
2023/06/06 04:06:52;;;;;;;;;5.33;3.33;;;;;27.65;33.15;101768.81;6305188;22;45295;-74
2023/06/06 04:09:17;;;;;;;;;3.00;3.00;;;;;27.60;33.51;101775.56;6305502;22;45387;-74
2023/06/06 04:11:43;;;;;;;;;3.33;3.33;;;;;27.66;32.86;101781.16;6305204;22;45598;-74
2023/06/06 04:14:12;;;;;;;;;3.00;3.00;;;;;27.61;33.16;101773.72;6304243;22;45335;-74
2023/06/06 04:16:37;;;;;;;;;2.67;2.00;;;;;27.66;32.83;101782.00;6305675;22;45544;-74
2023/06/06 04:19:03;;;;;;;;;5.00;5.00;;;;;27.60;33.07;101778.25;6305334;22;45375;-74
2023/06/06 04:21:30;;;;;;;;;3.67;3.33;;;;;27.57;32.81;101767.09;6304680;22;46345;-74
2023/06/06 04:23:56;;;;;;;;;3.33;3.00;;;;;27.62;32.99;101773.53;6304921;22;45387;-75
2023/06/06 04:26:24;;;;;;;;;3.33;3.00;;;;;27.62;33.43;101773.53;6304601;22;45300;-74
2023/06/06 04:28:53;;;;;;;;;5.00;5.00;;;;;27.64;33.06;101770.66;6305130;22;45292;-74
2023/06/06 04:31:23;;;;;;;;;4.00;4.00;;;;;27.65;32.72;101772.31;6304382;22;45481;-74
2023/06/06 04:33:53;;;;;;;;;5.33;3.33;;;;;27.60;32.82;101762.22;6303390;22;45317;-74
2023/06/06 04:36:19;;;;;;;;;4.00;4.00;;;;;27.62;32.74;101775.38;6305467;22;45226;-74
2023/06/06 04:38:46;;;;;;;;;3.67;3.67;;;;;27.58;33.38;101766.94;6304847;22;45269;-74
2023/06/06 04:41:12;;;;;;;;;4.67;4.00;;;;;27.62;32.82;101778.03;6304147;22;46314;-74
2023/06/06 04:43:38;;;;;;;;;3.67;3.67;;;;;27.62;33.00;101778.88;6304673;22;45308;-74
2023/06/06 04:46:04;;;;;;;;;6.00;6.00;;;;;27.58;32.83;101774.94;6304750;22;45255;-74
2023/06/06 04:48:30;;;;;;;;;3.33;3.33;;;;;27.63;33.46;101777.03;6305018;22;45276;-74
2023/06/06 04:50:56;;;;;;;;;3.33;3.33;;;;;27.58;33.45;101772.28;6305112;22;45614;-74
2023/06/06 04:53:23;;;;;;;;;2.33;1.00;;;;;27.65;33.43;101780.31;6304978;22;45177;-74
2023/06/06 04:55:49;;;;;;;;;5.00;5.00;;;;;27.65;32.94;101783.00;6304936;22;45268;-74
2023/06/06 04:58:16;;;;;;;;;4.67;3.67;;;;;27.48;32.80;101755.75;6304841;22;45490;-73
2023/06/06 05:00:46;;;;;;;;;4.67;4.67;;;;;27.58;32.75;101774.13;6304820;22;45414;-74
2023/06/06 05:03:16;;;;;;;;;4.00;3.00;;;;;27.60;32.89;101783.59;6304599;22;45363;-74
2023/06/06 05:05:41;;;;;;;;;6.00;5.00;;;;;27.60;33.09;101785.44;6304092;22;45282;-74
2023/06/06 05:08:06;;;;;;;;;3.33;3.33;;;;;27.59;32.99;101781.09;6305100;22;45368;-74
2023/06/06 05:10:32;;;;;;;;;5.00;5.00;;;;;27.58;33.11;101779.47;6304509;22;45340;-74
2023/06/06 05:12:57;;;;;;;;;7.00;5.00;;;;;27.62;33.03;101784.22;6302958;22;45394;-74
2023/06/06 05:15:22;;;;;;;;;3.67;3.67;;;;;27.64;33.12;101792.03;6304730;22;45317;-75
2023/06/06 05:17:55;;;;;;;;;5.00;5.00;;;;;27.61;32.74;101787.09;6305217;22;45422;-74
2023/06/06 05:20:23;;;;;;;;;5.00;5.00;;;;;27.60;33.10;101790.78;6304925;22;46378;-75
2023/06/06 05:22:49;;;;;;;;;5.33;3.67;;;;;27.59;32.79;101791.78;6304395;22;45267;-74
2023/06/06 05:25:15;;;;;;;;;5.33;4.00;;;;;27.54;32.96;101779.03;6304181;22;45333;-74
2023/06/06 05:27:40;;;;;;;;;6.00;5.33;;;;;27.59;33.50;101802.47;6304593;22;45440;-74
2023/06/06 05:30:06;;;;;;;;;5.33;5.00;;;;;27.57;33.32;101791.16;6304838;22;46499;-74
2023/06/06 05:32:32;;;;;;;;;4.00;4.00;;;;;27.57;32.84;101791.16;6304967;22;45331;-74
2023/06/06 05:34:57;;;;;;;;;3.33;3.33;;;;;27.56;33.45;101789.53;6304309;22;45263;-74
2023/06/06 05:37:22;;;;;;;;;4.00;3.33;;;;;27.58;33.39;101791.00;6304525;22;45392;-74
2023/06/06 05:39:48;;;;;;;;;4.00;2.67;;;;;27.61;32.99;101792.44;6303884;22;45273;-74
2023/06/06 05:42:13;;;;;;;;;4.00;4.00;;;;;27.55;33.24;101786.03;6304936;22;45234;-74
2023/06/06 05:44:38;;;;;;;;;4.33;4.00;;;;;27.58;33.33;101788.31;6305008;22;45220;-74
2023/06/06 05:47:04;;;;;;;;;4.00;4.00;;;;;27.55;33.54;101783.34;6304770;22;45194;-73
2023/06/06 05:49:31;;;;;;;;;5.00;4.33;;;;;27.62;33.24;101791.41;6304255;22;47013;-74
2023/06/06 05:51:56;;;;;;;;;5.33;4.00;;;;;27.62;32.70;101792.25;6304163;22;45315;-74
2023/06/06 05:54:22;;;;;;;;;3.33;3.33;;;;;27.56;33.25;101784.19;6303930;22;45264;-74
2023/06/06 05:56:47;;;;;;;;;5.33;4.00;;;;;27.60;32.89;101796.97;6304030;22;45296;-72
2023/06/06 05:59:13;;;;;;;;;4.33;3.33;;;;;27.57;33.08;101783.16;6304713;22;45761;-73
2023/06/06 06:01:39;;;;;;;;;4.00;4.00;;;;;27.60;33.39;101790.78;6303936;22;45300;-73
2023/06/06 06:04:06;;;;;;;;;7.00;5.67;;;;;27.61;32.74;101795.91;6304505;22;45406;-73
2023/06/06 06:06:31;;;;;;;;;5.33;4.67;;;;;27.58;32.94;101799.00;6302845;22;45533;-73
2023/06/06 06:08:57;;;;;;;;;4.00;4.00;;;;;27.59;32.97;101794.47;6302382;22;46685;-74
2023/06/06 06:11:23;;;;;;;;;3.00;3.00;;;;;27.58;32.87;101795.50;6303307;22;45292;-76
2023/06/06 06:13:48;;;;;;;;;3.33;2.00;;;;;27.47;32.67;101778.16;6302455;22;45243;-74
2023/06/06 06:16:14;;;;;;;;;4.33;4.33;;;;;27.56;33.24;101794.88;6301601;22;45456;-72
2023/06/06 06:18:39;;;;;;;;;7.33;5.00;;;;;27.58;33.32;101795.50;6303396;22;45932;-75
2023/06/06 06:21:05;;;;;;;;;4.33;3.67;;;;;27.59;33.16;101794.47;6303219;22;45265;-74
2023/06/06 06:23:30;;;;;;;;;3.33;3.33;;;;;27.62;32.92;101804.78;6303709;22;45335;-75
2023/06/06 06:25:55;;;;;;;;;6.00;5.00;;;;;27.66;33.43;101799.88;6296468;22;45435;-77
2023/06/06 06:28:22;;;;;;;;;4.00;4.00;;;;;27.60;33.18;101796.97;6299911;22;46346;-77
2023/06/06 06:30:48;;;;;;;;;5.00;5.00;;;;;27.64;33.39;101802.72;6303383;22;45547;-76
2023/06/06 06:33:13;;;;;;;;;1.67;1.67;;;;;27.61;33.59;101790.56;6303222;22;45276;-75
2023/06/06 06:35:40;;;;;;;;;4.00;4.00;;;;;27.66;33.26;101797.19;6301727;22;45423;-78
2023/06/06 06:38:05;;;;;;;;;7.67;5.00;;;;;27.61;33.30;101795.13;6301128;22;47482;-75
2023/06/06 06:40:31;;;;;;;;;6.67;4.67;;;;;27.64;34.09;101792.03;6303421;22;45283;-74
2023/06/06 06:42:56;;;;;;;;;3.00;3.00;;;;;27.68;34.10;101797.81;6303982;22;45258;-75
2023/06/06 06:45:23;;;;;;;;;5.33;4.00;;;;;27.71;34.32;101797.44;6303561;22;45300;-74
2023/06/06 06:47:49;;;;;;;;;7.00;4.00;;;;;27.64;34.37;101792.03;6303448;22;45712;-73
2023/06/06 06:50:14;;;;;;;;;4.00;4.00;;;;;27.67;34.37;101793.47;6301727;22;45223;-73
2023/06/06 06:52:40;;;;;;;;;4.33;4.00;;;;;27.68;33.75;101800.50;6297096;22;45779;-72
2023/06/06 06:55:07;;;;;;;;;5.67;5.67;;;;;27.68;33.98;101803.16;6298866;22;45479;-74
2023/06/06 06:57:33;;;;;;;;;6.00;6.00;;;;;27.76;34.40;101815.56;6299439;22;45453;-74
2023/06/06 07:00:00;;;;;;;;;6.00;4.00;;;;;27.77;33.67;101814.50;6299985;22;45299;-72
2023/06/06 07:02:27;;;;;;;;;7.33;4.00;;;;;27.74;34.24;101813.06;6299947;22;45514;-73
2023/06/06 07:04:59;;;;;;;;;5.67;5.33;;;;;27.79;33.75;101809.81;6299749;22;45283;-73
2023/06/06 07:07:25;;;;;;;;;4.00;4.00;;;;;27.76;34.06;101811.03;6297086;22;46435;-74
2023/06/06 07:09:51;;;;;;;;;5.00;5.00;;;;;27.73;34.05;101806.09;6299502;22;45262;-74
2023/06/06 07:12:17;;;;;;;;;5.67;4.33;;;;;27.74;34.12;101808.53;6299558;22;45344;-75
2023/06/06 07:14:42;;;;;;;;;5.67;4.00;;;;;27.62;33.92;101786.88;6300059;22;45374;-74
2023/06/06 07:17:07;;;;;;;;;5.00;5.00;;;;;27.75;34.09;101812.06;6299072;22;46200;-75
2023/06/06 07:19:36;;;;;;;;;4.33;4.33;;;;;27.73;34.24;101804.25;6298740;22;45327;-75
2023/06/06 07:22:05;;;;;;;;;5.33;4.00;;;;;27.76;34.00;101804.88;6299808;22;45353;-75
2023/06/06 07:24:31;;;;;;;;;6.33;5.00;;;;;27.79;34.28;101813.28;6299700;22;45543;-74
2023/06/06 07:26:57;;;;;;;;;6.67;5.00;;;;;27.76;34.16;101788.81;6300204;22;45354;-74
2023/06/06 07:29:23;;;;;;;;;6.67;5.00;;;;;27.75;34.01;101796.00;6299923;22;45835;-74
2023/06/06 07:31:50;;;;;;;;;7.33;5.33;;;;;27.77;34.60;101793.13;6301497;22;45317;-74
2023/06/06 07:34:15;;;;;;;;;6.67;5.00;;;;;27.81;34.12;101794.44;6301484;22;45475;-74
2023/06/06 07:36:41;;;;;;;;;6.33;5.33;;;;;27.80;34.14;101798.13;6300859;22;46077;-74
2023/06/06 07:39:06;;;;;;;;;6.33;6.33;;;;;27.81;34.21;101794.44;6301426;22;45335;-73
2023/06/06 07:41:33;;;;;;;;;6.00;6.00;;;;;27.82;33.63;101796.06;6301812;22;45765;-73
2023/06/06 07:43:59;;;;;;;;;6.33;6.00;;;;;27.82;33.90;101798.75;6301568;22;45503;-71
2023/06/06 07:46:24;;;;;;;;;7.67;6.67;;;;;27.79;34.68;101793.78;6300863;22;45988;-71
2023/06/06 07:48:50;;;;;;;;;10.00;6.67;;;;;27.82;34.95;101796.06;6301325;22;45257;-71
2023/06/06 07:51:16;;;;;;;;;5.33;5.33;;;;;27.88;34.78;101799.81;6301298;22;45356;-71
2023/06/06 07:53:43;;;;;;;;;10.00;8.67;;;;;27.89;34.49;101809.50;6301641;22;45643;-71
2023/06/06 07:56:09;;;;;;;;;9.00;8.33;;;;;27.85;34.65;101809.06;6300555;22;45340;-72
2023/06/06 07:58:43;;;;;;;;;8.00;6.00;;;;;27.89;34.38;101801.47;6299577;22;45837;-72
2023/06/06 08:01:10;;;;;;;;;11.00;10.33;;;;;27.89;34.36;101804.97;6301297;22;45377;-72
2023/06/06 08:03:36;;;;;;;;;9.33;8.00;;;;;27.85;34.03;101809.06;6301500;22;45476;-72
2023/06/06 08:06:02;;;;;;;;;11.00;10.00;;;;;27.88;34.92;101810.50;6300324;22;45356;-71
2023/06/06 08:08:27;;;;;;;;;9.00;7.33;;;;;27.89;34.72;101812.16;6300645;22;45508;-72
2023/06/06 08:10:53;;;;;;;;;11.33;8.33;;;;;27.92;33.97;101809.91;6301309;22;45475;-72
2023/06/06 08:13:21;;;;;;;;;10.00;8.00;;;;;27.90;34.32;101809.28;6301042;22;45523;-72
2023/06/06 08:15:46;;;;;;;;;13.33;8.67;;;;;27.96;34.63;101811.19;6301460;22;47438;-71
2023/06/06 08:18:15;;;;;;;;;11.67;7.67;;;;;27.96;34.39;101789.78;6300433;22;45289;-71
2023/06/06 08:20:40;;;;;;;;;12.67;9.67;;;;;27.98;34.53;101789.56;6301326;22;45422;-71
2023/06/06 08:23:06;;;;;;;;;11.33;9.67;;;;;28.03;34.37;101803.19;6301525;22;45229;-71
2023/06/06 08:25:31;;;;;;;;;12.33;9.00;;;;;28.07;34.07;101801.78;6300385;22;46568;-72
2023/06/06 08:27:58;;;;;;;;;8.67;8.00;;;;;28.01;34.52;101783.84;6301468;22;45258;-72
2023/06/06 08:30:23;;;;;;;;;9.00;8.00;;;;;28.14;34.40;101806.31;6300998;22;45280;-72
2023/06/06 08:32:50;;;;;;;;;9.00;8.00;;;;;28.21;34.91;101807.16;6301277;22;45461;-73
2023/06/06 08:35:16;;;;;;;;;13.33;9.00;;;;;28.26;34.41;101799.38;6300603;22;46616;-72
2023/06/06 08:37:41;;;;;;;;;9.33;9.33;;;;;28.26;33.90;101802.03;6300724;22;45305;-71
2023/06/06 08:40:08;;;;;;;;;16.67;12.00;;;;;28.30;34.45;101789.09;6301342;22;45222;-73
2023/06/06 08:42:40;;;;;;;;;31.50;22.50;;;;;28.37;33.84;101797.13;6300707;22;45360;-72
2023/06/06 08:45:07;;;;;;;;;59.25;36.00;;;;;28.35;34.02;101791.16;6300513;22;45312;-72
2023/06/06 08:47:34;;;;;;;;;53.75;32.00;;;;;28.39;34.52;101795.09;6299594;22;45365;-71
2023/06/06 08:50:01;;;;;;;;;38.50;26.75;;;;;28.49;34.16;101802.78;6300632;22;45263;-72
2023/06/06 08:52:29;;;;;;;;;50.25;30.00;;;;;28.52;34.78;101813.09;6300636;22;45440;-72
2023/06/06 08:54:54;;;;;;;;;43.25;27.00;;;;;28.37;34.35;101775.72;6300384;22;46967;-73
2023/06/06 08:57:20;;;;;;;;;31.75;22.25;;;;;28.52;33.85;101797.84;6300488;22;45292;-70
2023/06/06 08:59:46;;;;;;;;;29.50;17.75;;;;;28.58;33.81;101790.03;6301193;22;45265;-71
2023/06/06 09:02:12;;;;;;;;;18.50;4.50;;;;;28.62;34.18;101791.28;6300902;22;45452;-72
2023/06/06 09:04:38;;;;;;;;;26.25;18.00;;;;;28.61;34.28;101786.94;6300987;22;45531;-72
2023/06/06 09:07:11;;;;;;;;;23.50;18.00;;;;;28.47;34.16;101756.66;6301177;22;45378;-72
2023/06/06 09:09:42;;;;;;;;;27.00;17.00;;;;;28.63;34.42;101785.72;6300387;22;45240;-72
2023/06/06 09:12:08;;;;;;;;;24.75;17.50;;;;;28.61;34.14;101777.06;6300827;22;45312;-71
2023/06/06 09:14:34;;;;;;;;;28.25;17.75;;;;;28.65;33.95;101785.50;6300043;22;46234;-72
2023/06/06 09:17:01;;;;;;;;;29.25;19.50;;;;;28.71;33.98;101778.50;6300134;22;45285;-72
2023/06/06 09:19:26;;;;;;;;;21.75;15.50;;;;;28.72;34.23;101780.19;6298075;22;45278;-72
2023/06/06 09:21:52;;;;;;;;;25.33;15.00;;;;;28.73;33.93;101779.97;6300547;22;45424;-72
2023/06/06 09:24:18;;;;;;;;;26.75;14.75;;;;;28.77;34.09;101782.22;6299785;22;46419;-72
2023/06/06 09:26:43;;;;;;;;;20.50;16.25;;;;;28.74;34.43;101776.25;6301002;22;45808;-72
2023/06/06 09:29:12;;;;;;;;;17.00;13.00;;;;;28.79;34.56;101781.00;6298973;22;45338;-72
2023/06/06 09:31:38;;;;;;;;;25.00;17.25;;;;;28.79;34.35;101788.22;6300168;22;45408;-72
2023/06/06 09:34:05;;;;;;;;;26.00;18.25;;;;;28.80;34.03;101769.28;6300023;22;46473;-73
2023/06/06 09:36:33;;;;;;;;;20.25;18.00;;;;;28.84;34.42;101764.31;6299694;22;45380;-72
2023/06/06 09:39:08;;;;;;;;;21.00;12.00;;;;;28.83;34.32;101771.53;6299931;22;45360;-72
2023/06/06 09:41:41;;;;;;;;;20.25;13.75;;;;;28.87;34.34;101771.13;6298494;22;46057;-72
2023/06/06 09:44:33;;;;;;;;;18.00;13.33;;;;;28.87;34.14;101766.59;6300337;22;47199;-73
2023/06/06 09:47:00;;;;;;;;;18.33;13.00;;;;;28.89;34.12;101771.72;6294033;22;45403;-73
2023/06/06 09:49:34;;;;;;;;;23.75;14.25;;;;;28.90;34.27;101773.38;6300420;22;45261;-73
2023/06/06 09:51:59;;;;;;;;;18.50;14.75;;;;;28.88;34.05;101754.88;6299891;22;45333;-73
2023/06/06 09:54:24;;;;;;;;;18.00;11.75;;;;;28.85;33.96;101750.75;6299611;22;46354;-73
2023/06/06 09:56:51;;;;;;;;;20.33;14.00;;;;;28.89;33.90;101752.97;6300859;22;45826;-73
2023/06/06 09:59:20;;;;;;;;;17.75;14.75;;;;;28.89;33.97;101742.28;6300817;22;45348;-73
2023/06/06 10:01:50;;;;;;;;;16.25;13.50;;;;;28.83;33.78;101735.91;6300515;22;45439;-73
2023/06/06 10:04:16;;;;;;;;;15.67;13.00;;;;;28.85;33.91;101741.88;6300109;22;46110;-73
2023/06/06 10:06:43;;;;;;;;;20.33;12.33;;;;;28.88;33.70;101741.47;6300913;22;45259;-74
2023/06/06 10:09:09;;;;;;;;;15.50;12.75;;;;;28.76;33.90;101727.84;6300853;22;45269;-73
2023/06/06 10:11:36;;;;;;;;;14.67;10.33;;;;;28.88;33.54;101738.78;6300636;22;45119;-73
2023/06/06 10:14:06;;;;;;;;;20.00;13.00;;;;;28.74;33.96;101706.66;6300682;22;45451;-73
2023/06/06 10:16:37;;;;;;;;;13.00;12.00;;;;;28.86;33.86;101732.78;6299850;22;45312;-73
2023/06/06 10:19:03;;;;;;;;;18.75;12.00;;;;;28.87;33.54;101723.75;6300705;22;45361;-73
2023/06/06 10:21:30;;;;;;;;;16.33;13.67;;;;;28.89;33.54;101735.06;6300254;22;45277;-73
2023/06/06 10:23:56;;;;;;;;;17.75;12.25;;;;;28.85;33.64;101726.63;6298342;22;46645;-73
2023/06/06 10:26:30;;;;;;;;;18.67;13.00;;;;;28.80;33.31;101721.06;6300035;22;45225;-73
2023/06/06 10:29:08;;;;;;;;;17.33;14.00;;;;;28.87;33.75;101725.59;6300936;22;45339;-73
2023/06/06 10:31:46;;;;;;;;;17.25;10.75;;;;;28.87;33.84;101733.63;6299559;22;45276;-73
2023/06/06 10:34:19;;;;;;;;;11.00;9.33;;;;;28.84;33.68;101718.78;6300737;22;45449;-73
2023/06/06 10:36:44;;;;;;;;;13.67;13.00;;;;;28.82;33.27;101719.00;6300186;22;45223;-73
2023/06/06 10:39:23;;;;;;;;;11.00;11.00;;;;;28.83;33.43;101723.31;6300670;22;45266;-72
2023/06/06 10:41:54;;;;;;;;;18.33;9.67;;;;;28.81;33.48;101714.66;6300433;22;45375;-73
2023/06/06 10:44:35;;;;;;;;;14.00;11.33;;;;;28.81;33.36;101711.16;6298711;22;45655;-73
2023/06/06 10:47:27;;;;;;;;;14.67;12.00;;;;;28.85;33.33;101715.09;6300168;22;45378;-73
2023/06/06 10:50:10;;;;;;;;;17.67;11.00;;;;;28.84;33.47;101721.47;6255812;22;45492;-73
2023/06/06 10:52:54;;;;;;;;;11.33;10.00;;;;;28.83;33.33;101701.09;6268314;22;45475;-73
2023/06/06 10:55:22;;;;;;;;;11.33;11.00;;;;;28.83;33.25;101698.41;6268352;22;45233;-73
2023/06/06 10:57:54;;;;;;;;;12.67;9.00;;;;;28.82;33.00;101700.25;6267806;22;45264;-73
2023/06/06 11:00:25;;;;;;;;;14.00;11.33;;;;;28.75;32.95;101691.41;6267773;22;45267;-73
2023/06/06 11:02:51;;;;;;;;;13.67;11.00;;;;;28.72;33.82;101684.63;6269063;22;45432;-73
2023/06/06 11:05:18;;;;;;;;;10.33;10.00;;;;;28.71;33.71;101672.25;6269182;22;46329;-74
2023/06/06 11:07:49;;;;;;;;;17.00;12.00;;;;;28.78;33.44;101682.94;6270081;22;45340;-73
2023/06/06 11:10:20;;;;;;;;;14.00;9.67;;;;;28.76;33.07;101671.63;6242682;22;45381;-73
2023/06/06 11:12:49;;;;;;;;;12.00;11.33;;;;;28.69;33.05;101676.16;6242491;22;45607;-73
2023/06/06 11:15:26;;;;;;;;;12.33;10.67;;;;;28.61;33.67;101663.78;6269931;22;47096;-73
2023/06/06 11:18:00;;;;;;;;;8.33;8.00;;;;;28.75;33.49;101688.72;6269316;22;45278;-73
2023/06/06 11:20:26;;;;;;;;;9.67;9.33;;;;;28.69;33.32;101679.66;6269260;22;45354;-73
2023/06/06 11:23:03;;;;;;;;;8.33;7.67;;;;;28.74;33.10;101695.09;6270132;22;45251;-73